Bookmark and Share
Track history (hours):
 

Purki

Last reported at 2014-Apr-09 19:15 UTC. Time now 2014-Apr-18 13:23 UTC.
Position N 36°26' E 023°14'.
Warning: this ship's position is 8 days out of date.

Length 147 m; draft 8.9 m.

Type: Ship. MMSI: 248495000.

NotesDate/timePositionNaut miles runAvg speedWind from/ knotsBaromVisibWave heightAir tempDewpointWater temp
2014-Apr-09 19:15N 36°26' E 023°14'4013.5
2014-Apr-09 16:18N 36°60' E 023°41'1013.5
2014-Apr-09 15:33N 37°08' E 023°48'1514.0
2014-Apr-09 14:28N 37°21' E 023°58'9513.8
2014-Apr-09 07:33N 38°41' E 025°03'1413.7
2014-Apr-09 06:33N 38°54' E 025°11'4413.8
2014-Apr-09 03:20N 39°33' E 025°38'1214.1
2014-Apr-09 02:30N 39°43' E 025°45'1414.1
2014-Apr-09 01:31N 39°56' E 025°53'1414.3
2014-Apr-09 00:33N 40°02' E 026°09'1713.7
2014-Apr-08 23:17N 40°13' E 026°26'1314.5
2014-Apr-08 22:25N 40°21' E 026°39'1213.1
2014-Apr-08 21:28N 40°29' E 026°52'  
2014-Apr-05 04:07N 38°47' E 026°46'4910.7
2014-Apr-04 23:31N 38°02' E 026°21'1714.5
2014-Apr-04 22:20N 37°46' E 026°30'2814.2
2014-Apr-04 20:21N 37°22' E 026°49'1314.1
2014-Apr-04 19:24N 37°10' E 026°58'1314.1
2014-Apr-04 18:29N 36°60' E 027°07'1313.8
2014-Apr-04 17:33N 36°55' E 027°22'1413.1
2014-Apr-04 16:26N 36°40' E 027°21'4113.8
2014-Apr-04 13:28N 36°30' E 028°10'231 4.9
2014-Apr-02 14:30N 35°58' E 032°53'1815.1
2014-Apr-02 13:19N 35°56' E 032°32'17514.4
2014-Apr-02 01:10N 35°18' E 029°02'  

Dump ship's entire track history

sailing weather and tide predictions

Purki — 9HA2386 — position and weather